createdAt,value
2023-05-26T00:00:15.921Z,1624.00
2023-05-26T00:01:15.939Z,1629.00
2023-05-26T00:02:15.989Z,1632.00
2023-05-26T00:03:16.106Z,1642.00
2023-05-26T00:04:15.984Z,1629.00
2023-05-26T00:05:15.936Z,1640.00
2023-05-26T00:06:15.953Z,1638.00
2023-05-26T00:07:15.950Z,1614.00
2023-05-26T00:08:15.920Z,1607.00
2023-05-26T00:09:15.976Z,1617.00
2023-05-26T00:10:15.931Z,1618.00
2023-05-26T00:11:15.941Z,1626.00
2023-05-26T00:12:15.943Z,1614.00
2023-05-26T00:13:15.949Z,1609.00
2023-05-26T00:14:15.933Z,1635.00
2023-05-26T00:15:15.937Z,1626.00
2023-05-26T00:16:15.977Z,1624.00
2023-05-26T00:17:15.934Z,1612.00
2023-05-26T00:18:16.022Z,1627.00
2023-05-26T00:19:15.905Z,1622.00
2023-05-26T00:20:15.930Z,1622.00
2023-05-26T00:21:15.912Z,1611.00
2023-05-26T00:22:15.939Z,1606.00
2023-05-26T00:23:15.902Z,1603.00
2023-05-26T00:24:15.906Z,1619.00
2023-05-26T00:25:15.897Z,1608.00
2023-05-26T00:26:15.894Z,1606.00
2023-05-26T00:27:15.898Z,1596.00
2023-05-26T00:28:15.891Z,1611.00
2023-05-26T00:29:28.455Z,1596.00
2023-05-26T00:30:16.882Z,1597.00
2023-05-26T00:31:15.885Z,1600.00
2023-05-26T00:32:15.859Z,1602.00
2023-05-26T00:33:15.854Z,1597.00
2023-05-26T00:34:15.830Z,1613.00
2023-05-26T00:35:15.851Z,1599.00
2023-05-26T00:36:15.831Z,1593.00
2023-05-26T00:37:15.831Z,1587.00
2023-05-26T00:38:15.837Z,1603.00
2023-05-26T00:39:15.809Z,1591.00
2023-05-26T00:40:15.809Z,1594.00
2023-05-26T00:41:15.818Z,1582.00
2023-05-26T00:42:15.776Z,1581.00
2023-05-26T00:43:15.781Z,1586.00
2023-05-26T00:44:15.776Z,1586.00
2023-05-26T00:45:15.780Z,1583.00
2023-05-26T00:46:16.013Z,1586.00
2023-05-26T00:47:15.877Z,1589.00
2023-05-26T00:48:15.743Z,1588.00
2023-05-26T00:49:15.757Z,1587.00
2023-05-26T00:50:15.736Z,1575.00
2023-05-26T00:51:15.730Z,1571.00
2023-05-26T00:52:15.713Z,1585.00
2023-05-26T00:53:15.737Z,1579.00
2023-05-26T00:54:15.754Z,1591.00
2023-05-26T00:55:15.694Z,1586.00
2023-05-26T00:56:15.685Z,1567.00
2023-05-26T00:57:15.696Z,1564.00
2023-05-26T00:58:15.664Z,1577.00
2023-05-26T00:59:15.668Z,1572.00
2023-05-26T01:00:15.689Z,1560.00
2023-05-26T01:01:15.750Z,1565.00
2023-05-26T01:02:15.656Z,1565.00
2023-05-26T01:03:15.666Z,1557.00
2023-05-26T01:04:15.621Z,1574.00
2023-05-26T01:05:15.639Z,1568.00
2023-05-26T01:06:15.611Z,1560.00
2023-05-26T01:07:15.612Z,1553.00
2023-05-26T01:08:15.602Z,1561.00
2023-05-26T01:09:15.598Z,1537.00
2023-05-26T01:10:15.586Z,1557.00
2023-05-26T01:11:15.607Z,1540.00
2023-05-26T01:12:15.598Z,1555.00
2023-05-26T01:13:15.565Z,1547.00
2023-05-26T01:14:15.573Z,1553.00
2023-05-26T01:15:15.566Z,1550.00
2023-05-26T01:16:15.624Z,1541.00
2023-05-26T01:17:15.535Z,1541.00
2023-05-26T01:18:15.537Z,1548.00
2023-05-26T01:19:15.528Z,1548.00
2023-05-26T01:20:15.602Z,1543.00
2023-05-26T01:21:15.530Z,1546.00
2023-05-26T01:22:15.507Z,1540.00
2023-05-26T01:23:15.514Z,1532.00
2023-05-26T01:24:15.490Z,1539.00
2023-05-26T01:25:15.493Z,1526.00
2023-05-26T01:26:15.501Z,1542.00
2023-05-26T01:27:15.490Z,1527.00
2023-05-26T01:28:15.473Z,1528.00
2023-05-26T01:29:15.472Z,1539.00
2023-05-26T01:30:15.462Z,1526.00
2023-05-26T01:31:15.472Z,1521.00
2023-05-26T01:32:15.434Z,1533.00
2023-05-26T01:33:15.556Z,1534.00
2023-05-26T01:34:15.455Z,1518.00
2023-05-26T01:35:15.443Z,1526.00
2023-05-26T01:36:15.441Z,1537.00
2023-05-26T01:37:15.417Z,1512.00
2023-05-26T01:38:15.405Z,1508.00
2023-05-26T01:39:15.401Z,1504.00
2023-05-26T01:40:15.383Z,1520.00
2023-05-26T01:41:15.379Z,1506.00
2023-05-26T01:42:29.634Z,1514.00
2023-05-26T01:43:16.386Z,1515.00
2023-05-26T01:44:15.366Z,1516.00
2023-05-26T01:45:15.362Z,1513.00
2023-05-26T01:46:15.389Z,1519.00
2023-05-26T01:47:15.360Z,1508.00
2023-05-26T01:48:15.342Z,1521.00
2023-05-26T01:49:15.340Z,1517.00
2023-05-26T01:50:15.318Z,1511.00
2023-05-26T01:51:15.338Z,1506.00
2023-05-26T01:52:15.309Z,1513.00
2023-05-26T01:53:15.300Z,1515.00
2023-05-26T01:54:15.300Z,1496.00
2023-05-26T01:55:15.319Z,1508.00
2023-05-26T01:56:15.297Z,1497.00
2023-05-26T01:57:15.268Z,1500.00
2023-05-26T01:58:15.271Z,1505.00
2023-05-26T01:59:15.278Z,1507.00
2023-05-26T02:00:15.269Z,1502.00
2023-05-26T02:01:15.266Z,1491.00
2023-05-26T02:02:15.261Z,1488.00
2023-05-26T02:03:15.317Z,1500.00
2023-05-26T02:04:15.261Z,1497.00
2023-05-26T02:05:15.235Z,1492.00
2023-05-26T02:06:15.234Z,1482.00
2023-05-26T02:07:15.209Z,1495.00
2023-05-26T02:08:15.212Z,1481.00
2023-05-26T02:09:15.201Z,1491.00
2023-05-26T02:10:15.198Z,1479.00
2023-05-26T02:11:15.191Z,1474.00
2023-05-26T02:12:15.215Z,1469.00
2023-05-26T02:13:15.190Z,1489.00
2023-05-26T02:14:15.172Z,1466.00
2023-05-26T02:15:15.161Z,1474.00
2023-05-26T02:16:15.287Z,1480.00
2023-05-26T02:17:15.138Z,1470.00
2023-05-26T02:18:15.158Z,1476.00
2023-05-26T02:19:15.146Z,1464.00
2023-05-26T02:20:15.152Z,1459.00
2023-05-26T02:21:15.135Z,1473.00
2023-05-26T02:22:15.122Z,1461.00
2023-05-26T02:23:15.106Z,1456.00
2023-05-26T02:24:15.105Z,1483.00
2023-05-26T02:25:15.094Z,1478.00
2023-05-26T02:26:15.116Z,1459.00
2023-05-26T02:27:15.095Z,1448.00
2023-05-26T02:28:15.102Z,1458.00
2023-05-26T02:29:15.090Z,1465.00
2023-05-26T02:30:15.153Z,1463.00
2023-05-26T02:31:15.080Z,1442.00
2023-05-26T02:32:15.102Z,1447.00
2023-05-26T02:33:15.155Z,1451.00
2023-05-26T02:34:15.057Z,1453.00
2023-05-26T02:35:15.042Z,1441.00
2023-05-26T02:36:15.033Z,1434.00
2023-05-26T02:37:15.009Z,1454.00
2023-05-26T02:38:15.009Z,1437.00
2023-05-26T02:39:15.005Z,1452.00
2023-05-26T02:40:15.014Z,1445.00
2023-05-26T02:41:15.008Z,1439.00
2023-05-26T02:42:14.995Z,1449.00
2023-05-26T02:43:14.988Z,1444.00
2023-05-26T02:44:15.021Z,1446.00
2023-05-26T02:45:14.993Z,1442.00
2023-05-26T02:46:15.132Z,1433.00
2023-05-26T02:47:14.996Z,1433.00
2023-05-26T02:48:15.000Z,1430.00
2023-05-26T02:49:15.015Z,1432.00
2023-05-26T02:50:14.997Z,1416.00
2023-05-26T02:51:15.010Z,1433.00
2023-05-26T02:52:15.029Z,1408.00
2023-05-26T02:53:15.026Z,1416.00
2023-05-26T02:54:15.017Z,1419.00
2023-05-26T02:55:15.037Z,1429.00
2023-05-26T02:56:15.050Z,1430.00
2023-05-26T02:57:15.043Z,1421.00
2023-05-26T02:58:15.043Z,1409.00
2023-05-26T02:59:15.039Z,1408.00
2023-05-26T03:00:15.045Z,1411.00
2023-05-26T03:01:15.116Z,1411.00
2023-05-26T03:02:15.101Z,1408.00
2023-05-26T03:03:15.262Z,1417.00
2023-05-26T03:04:15.080Z,1412.00
2023-05-26T03:05:15.094Z,1415.00
2023-05-26T03:06:15.098Z,1414.00
2023-05-26T03:07:15.082Z,1403.00
2023-05-26T03:08:15.098Z,1419.00
2023-05-26T03:09:15.125Z,1408.00
2023-05-26T03:10:15.112Z,1410.00
2023-05-26T03:11:15.155Z,1392.00
2023-05-26T03:12:15.135Z,1396.00
2023-05-26T03:13:15.158Z,1392.00
2023-05-26T03:14:15.140Z,1401.00
2023-05-26T03:15:15.160Z,1402.00
2023-05-26T03:16:15.176Z,1389.00
2023-05-26T03:17:15.194Z,1388.00
2023-05-26T03:18:15.172Z,1403.00
2023-05-26T03:19:15.177Z,1401.00
2023-05-26T03:20:15.233Z,1387.00
2023-05-26T03:21:47.962Z,1385.00
2023-05-26T03:22:40.735Z,1386.00
2023-05-26T03:23:16.185Z,1387.00
2023-05-26T03:24:15.195Z,1391.00
2023-05-26T03:25:15.189Z,1395.00
2023-05-26T03:26:15.171Z,1404.00
2023-05-26T03:27:15.171Z,1401.00
2023-05-26T03:28:15.156Z,1388.00
2023-05-26T03:29:15.153Z,1405.00
2023-05-26T03:30:15.132Z,1408.00
2023-05-26T03:31:15.146Z,1392.00
2023-05-26T03:32:15.132Z,1385.00
2023-05-26T03:33:15.108Z,1370.00
2023-05-26T03:34:15.479Z,1382.00
2023-05-26T03:35:15.102Z,1391.00
2023-05-26T03:36:15.108Z,1394.00
2023-05-26T03:37:15.084Z,1385.00
2023-05-26T03:38:15.088Z,1383.00
2023-05-26T03:39:15.080Z,1394.00
2023-05-26T03:40:15.045Z,1383.00
2023-05-26T03:41:15.060Z,1375.00
2023-05-26T03:42:15.041Z,1367.00
2023-05-26T03:43:15.056Z,1373.00
2023-05-26T03:44:15.037Z,1366.00
2023-05-26T03:45:15.036Z,1373.00
2023-05-26T03:46:15.054Z,1376.00
2023-05-26T03:47:15.016Z,1357.00
2023-05-26T03:48:15.011Z,1361.00
2023-05-26T03:49:15.004Z,1359.00
2023-05-26T03:50:14.986Z,1371.00
2023-05-26T03:51:14.998Z,1363.00
2023-05-26T03:52:15.004Z,1361.00
2023-05-26T03:53:14.983Z,1365.00
2023-05-26T03:54:14.957Z,1366.00
2023-05-26T03:55:14.959Z,1358.00
2023-05-26T03:56:14.988Z,1361.00
2023-05-26T03:57:14.936Z,1356.00
2023-05-26T03:58:14.933Z,1354.00
2023-05-26T03:59:14.919Z,1352.00
2023-05-26T04:00:14.965Z,1348.00
2023-05-26T04:01:14.907Z,1341.00
2023-05-26T04:02:14.960Z,1341.00
2023-05-26T04:03:14.896Z,1345.00
2023-05-26T04:04:14.906Z,1345.00
2023-05-26T04:05:14.882Z,1352.00
2023-05-26T04:06:14.893Z,1333.00
2023-05-26T04:07:14.866Z,1351.00
2023-05-26T04:08:14.850Z,1338.00
2023-05-26T04:09:14.851Z,1352.00
2023-05-26T04:10:14.871Z,1345.00
2023-05-26T04:11:14.854Z,1332.00
2023-05-26T04:12:14.826Z,1346.00
2023-05-26T04:13:14.817Z,1323.00
2023-05-26T04:14:14.839Z,1339.00
2023-05-26T04:15:14.808Z,1342.00
2023-05-26T04:16:14.845Z,1333.00
2023-05-26T04:17:14.792Z,1336.00
2023-05-26T04:18:14.795Z,1324.00
2023-05-26T04:19:14.776Z,1326.00
2023-05-26T04:20:14.803Z,1326.00
2023-05-26T04:21:14.773Z,1322.00
2023-05-26T04:22:14.762Z,1317.00
2023-05-26T04:23:14.752Z,1323.00
2023-05-26T04:24:14.747Z,1312.00
2023-05-26T04:25:14.792Z,1311.00
2023-05-26T04:26:14.738Z,1329.00
2023-05-26T04:27:14.720Z,1319.00
2023-05-26T04:28:14.712Z,1318.00
2023-05-26T04:29:14.713Z,1315.00
2023-05-26T04:30:14.692Z,1321.00
2023-05-26T04:31:14.700Z,1310.00
2023-05-26T04:32:14.761Z,1313.00
2023-05-26T04:33:14.678Z,1309.00
2023-05-26T04:34:14.667Z,1300.00
2023-05-26T04:35:14.668Z,1296.00
2023-05-26T04:36:14.702Z,1311.00
2023-05-26T04:37:14.656Z,1309.00
2023-05-26T04:38:14.680Z,1300.00
2023-05-26T04:39:14.639Z,1311.00
2023-05-26T04:40:14.666Z,1300.00
2023-05-26T04:41:14.621Z,1302.00
2023-05-26T04:42:14.622Z,1311.00
2023-05-26T04:43:14.626Z,1307.00
2023-05-26T04:44:14.618Z,1314.00
2023-05-26T04:45:15.186Z,1299.00
2023-05-26T04:46:14.665Z,1307.00
2023-05-26T04:47:14.586Z,1299.00
2023-05-26T04:48:14.569Z,1304.00
2023-05-26T04:49:14.563Z,1292.00
2023-05-26T04:50:14.563Z,1294.00
2023-05-26T04:51:14.562Z,1294.00
2023-05-26T04:52:14.572Z,1289.00
2023-05-26T04:53:14.546Z,1309.00
2023-05-26T04:54:14.532Z,1292.00
2023-05-26T04:55:14.537Z,1290.00
2023-05-26T04:56:14.561Z,1286.00
2023-05-26T04:57:14.520Z,1283.00
2023-05-26T04:58:14.506Z,1293.00
2023-05-26T04:59:14.509Z,1289.00
2023-05-26T05:00:14.515Z,1289.00
2023-05-26T05:01:14.516Z,1302.00
2023-05-26T05:02:14.552Z,1289.00
2023-05-26T05:03:14.485Z,1295.00
2023-05-26T05:04:14.484Z,1287.00
2023-05-26T05:05:14.481Z,1289.00
2023-05-26T05:06:14.472Z,1281.00
2023-05-26T05:07:14.475Z,1277.00
2023-05-26T05:08:14.435Z,1283.00
2023-05-26T05:09:14.435Z,1285.00
2023-05-26T05:10:14.466Z,1263.00
2023-05-26T05:11:14.477Z,1278.00
2023-05-26T05:12:14.452Z,1283.00
2023-05-26T05:13:14.458Z,1284.00
2023-05-26T05:14:14.478Z,1284.00
2023-05-26T05:15:14.477Z,1273.00
2023-05-26T05:16:14.507Z,1275.00
2023-05-26T05:17:14.492Z,1278.00
2023-05-26T05:18:14.499Z,1273.00
2023-05-26T05:19:14.499Z,1269.00
2023-05-26T05:20:16.448Z,1262.00
2023-05-26T05:21:14.646Z,1266.00
2023-05-26T05:22:14.581Z,1273.00
2023-05-26T05:23:14.594Z,1272.00
2023-05-26T05:24:14.551Z,1277.00
2023-05-26T05:25:14.615Z,1270.00
2023-05-26T05:26:14.602Z,1262.00
2023-05-26T05:27:14.588Z,1272.00
2023-05-26T05:28:14.583Z,1271.00
2023-05-26T05:29:14.627Z,1265.00
2023-05-26T05:30:14.610Z,1254.00
2023-05-26T05:31:14.997Z,1257.00
2023-05-26T05:32:14.662Z,1255.00
2023-05-26T05:33:14.750Z,1265.00
2023-05-26T05:34:14.630Z,1241.00
2023-05-26T05:35:14.683Z,1240.00
2023-05-26T05:36:14.653Z,1244.00
2023-05-26T05:37:14.638Z,1248.00
2023-05-26T05:38:14.725Z,1251.00
2023-05-26T05:39:14.686Z,1280.00
2023-05-26T05:40:14.725Z,1269.00
2023-05-26T05:41:15.032Z,1261.00
2023-05-26T05:42:14.679Z,1269.00
2023-05-26T05:43:14.668Z,1266.00
2023-05-26T05:44:14.665Z,1256.00
2023-05-26T05:45:14.658Z,1285.00
2023-05-26T05:46:15.008Z,1278.00
2023-05-26T05:47:14.718Z,1270.00
2023-05-26T05:48:14.714Z,1272.00
2023-05-26T05:49:14.705Z,1260.00
2023-05-26T05:50:14.690Z,1270.00
2023-05-26T05:51:14.695Z,1244.00
2023-05-26T05:52:14.703Z,1244.00
2023-05-26T05:53:14.697Z,1235.00
2023-05-26T05:54:14.681Z,1216.00
2023-05-26T05:55:14.704Z,1223.00
2023-05-26T05:56:14.725Z,1231.00
2023-05-26T05:57:14.694Z,1220.00
2023-05-26T05:58:14.687Z,1218.00
2023-05-26T05:59:14.725Z,1205.00
2023-05-26T06:00:14.715Z,1204.00
2023-05-26T06:01:14.699Z,1200.00
2023-05-26T06:02:14.801Z,1188.00
2023-05-26T06:03:14.842Z,1186.00
2023-05-26T06:04:14.850Z,1186.00
2023-05-26T06:05:14.854Z,1183.00
2023-05-26T06:06:15.011Z,1170.00
2023-05-26T06:07:15.023Z,1155.00
2023-05-26T06:08:14.792Z,1144.00
2023-05-26T06:09:14.831Z,1155.00
2023-05-26T06:10:14.805Z,1145.00
2023-05-26T06:11:14.816Z,1146.00
2023-05-26T06:12:14.996Z,1146.00
2023-05-26T06:13:14.863Z,1137.00
2023-05-26T06:14:14.863Z,1140.00
2023-05-26T06:15:14.900Z,1140.00
2023-05-26T06:16:14.944Z,1127.00
2023-05-26T06:17:15.044Z,1141.00
2023-05-26T06:18:14.988Z,1136.00
2023-05-26T06:19:14.954Z,1129.00
2023-05-26T06:20:14.992Z,1133.00
2023-05-26T06:21:15.028Z,1139.00
2023-05-26T06:22:15.012Z,1130.00
2023-05-26T06:23:15.017Z,1131.00
2023-05-26T06:24:15.055Z,1129.00
2023-05-26T06:25:15.076Z,1136.00
2023-05-26T06:26:15.069Z,1122.00
2023-05-26T06:27:16.732Z,1127.00
2023-05-26T06:28:15.111Z,1124.00
2023-05-26T06:29:15.124Z,1110.00
2023-05-26T06:30:15.143Z,1121.00
2023-05-26T06:31:15.198Z,1123.00
2023-05-26T06:32:15.171Z,1117.00
2023-05-26T06:33:15.189Z,1121.00
2023-05-26T06:34:15.200Z,1115.00
2023-05-26T06:35:15.256Z,1129.00
2023-05-26T06:36:15.557Z,1109.00
2023-05-26T06:37:16.043Z,1166.00
2023-05-26T06:38:15.262Z,1227.00
2023-05-26T06:39:15.250Z,1257.00
2023-05-26T06:40:15.283Z,1299.00
2023-05-26T06:41:15.564Z,1329.00
2023-05-26T06:42:15.526Z,1339.00
2023-05-26T06:43:15.307Z,1354.00
2023-05-26T06:44:15.316Z,1376.00
2023-05-26T06:45:15.365Z,1392.00
2023-05-26T06:46:15.399Z,1390.00
2023-05-26T06:47:15.584Z,1394.00
2023-05-26T06:48:15.433Z,1415.00
2023-05-26T06:49:15.414Z,1433.00
2023-05-26T06:50:15.400Z,1420.00
2023-05-26T06:51:15.618Z,1441.00
2023-05-26T06:52:15.427Z,1441.00
2023-05-26T06:53:15.439Z,1454.00
2023-05-26T06:54:15.455Z,1414.00
2023-05-26T06:55:15.491Z,1362.00
2023-05-26T06:56:15.481Z,1338.00
2023-05-26T06:57:15.497Z,1317.00
2023-05-26T06:58:15.533Z,1306.00
2023-05-26T06:59:15.529Z,1281.00
2023-05-26T07:00:15.556Z,1256.00
2023-05-26T07:01:15.535Z,1239.00
2023-05-26T07:02:15.584Z,1207.00
2023-05-26T07:03:15.598Z,1201.00
2023-05-26T07:04:15.537Z,1173.00
2023-05-26T07:05:15.571Z,1175.00
2023-05-26T07:06:15.629Z,1162.00
2023-05-26T07:07:15.599Z,1152.00
2023-05-26T07:08:15.604Z,1137.00
2023-05-26T07:09:15.621Z,1116.00
2023-05-26T07:10:15.629Z,1126.00
2023-05-26T07:11:15.670Z,1102.00
2023-05-26T07:12:15.671Z,1102.00
2023-05-26T07:13:15.669Z,1096.00
2023-05-26T07:14:15.700Z,1112.00
2023-05-26T07:15:15.704Z,1124.00
2023-05-26T07:16:15.738Z,1121.00
2023-05-26T07:17:15.707Z,1148.00
2023-05-26T07:18:15.731Z,1144.00
2023-05-26T07:19:15.792Z,1111.00
2023-05-26T07:20:15.813Z,1123.00
2023-05-26T07:21:15.764Z,1137.00
2023-05-26T07:22:15.794Z,1136.00
2023-05-26T07:23:15.783Z,1140.00
2023-05-26T07:24:15.797Z,1125.00
2023-05-26T07:25:15.797Z,1109.00
2023-05-26T07:26:15.812Z,1108.00
2023-05-26T07:27:15.806Z,1116.00
2023-05-26T07:28:15.812Z,1095.00
2023-05-26T07:29:15.838Z,1185.00
2023-05-26T07:30:15.842Z,1187.00
2023-05-26T07:31:15.863Z,1160.00
2023-05-26T07:32:17.157Z,1125.00
2023-05-26T07:33:15.927Z,1206.00
2023-05-26T07:34:15.842Z,1262.00
2023-05-26T07:35:15.843Z,1298.00
2023-05-26T07:36:16.554Z,1300.00
2023-05-26T07:37:15.813Z,1306.00
2023-05-26T07:38:15.816Z,1279.00
2023-05-26T07:39:15.792Z,1185.00
2023-05-26T07:40:15.809Z,1168.00
2023-05-26T07:41:15.809Z,1149.00
2023-05-26T07:42:15.799Z,1093.00
2023-05-26T07:43:15.772Z,1098.00
2023-05-26T07:44:15.844Z,1045.00
2023-05-26T07:45:15.766Z,1047.00
2023-05-26T07:46:16.087Z,1021.00
2023-05-26T07:47:15.750Z,977.00
2023-05-26T07:48:15.789Z,991.00
2023-05-26T07:49:15.722Z,962.00
2023-05-26T07:50:15.749Z,1051.00
2023-05-26T07:51:16.068Z,1149.00
2023-05-26T07:52:15.697Z,1196.00
2023-05-26T07:53:15.690Z,1227.00
2023-05-26T07:54:15.701Z,1172.00
2023-05-26T07:55:15.675Z,1120.00
2023-05-26T07:56:15.720Z,1060.00
2023-05-26T07:57:28.937Z,1044.00
2023-05-26T07:58:16.655Z,1009.00
2023-05-26T07:59:15.661Z,979.00
2023-05-26T08:00:15.636Z,958.00
2023-05-26T08:01:16.059Z,967.00
2023-05-26T08:02:15.656Z,940.00
2023-05-26T08:03:15.702Z,955.00
2023-05-26T08:04:15.614Z,964.00
2023-05-26T08:05:15.637Z,926.00
2023-05-26T08:06:25.582Z,873.00
2023-05-26T08:07:18.456Z,845.00
2023-05-26T08:08:15.575Z,799.00
2023-05-26T08:09:15.577Z,753.00
2023-05-26T08:10:15.599Z,743.00
2023-05-26T08:11:15.567Z,714.00
2023-05-26T08:12:15.585Z,695.00
2023-05-26T08:13:15.559Z,738.00
2023-05-26T08:14:15.560Z,742.00
2023-05-26T08:15:17.049Z,782.00
2023-05-26T08:16:15.568Z,783.00
2023-05-26T08:17:15.527Z,788.00
2023-05-26T08:18:15.533Z,786.00
2023-05-26T08:19:15.512Z,814.00
2023-05-26T08:20:15.571Z,802.00
2023-05-26T08:21:15.505Z,737.00
2023-05-26T08:22:15.543Z,759.00
2023-05-26T08:23:15.483Z,761.00
2023-05-26T08:24:15.481Z,912.00
2023-05-26T08:25:15.483Z,881.00
2023-05-26T08:26:15.488Z,802.00
2023-05-26T08:27:15.464Z,732.00
2023-05-26T08:28:15.453Z,642.00
2023-05-26T08:29:15.445Z,597.00
2023-05-26T08:30:15.461Z,593.00
2023-05-26T08:31:15.686Z,588.00
2023-05-26T08:32:15.427Z,569.00
2023-05-26T08:33:15.420Z,557.00
2023-05-26T08:34:15.428Z,541.00
2023-05-26T08:35:15.419Z,551.00
2023-05-26T08:36:15.429Z,531.00
2023-05-26T08:37:15.393Z,544.00
2023-05-26T08:38:15.386Z,519.00
2023-05-26T08:39:15.395Z,503.00
2023-05-26T08:40:15.375Z,509.00
2023-05-26T08:41:15.391Z,519.00
2023-05-26T08:42:15.583Z,517.00
2023-05-26T08:43:15.365Z,652.00
2023-05-26T08:44:15.345Z,738.00
2023-05-26T08:45:15.359Z,795.00
2023-05-26T08:46:15.604Z,780.00
2023-05-26T08:47:15.615Z,713.00
2023-05-26T08:48:15.361Z,701.00
2023-05-26T08:49:15.308Z,715.00
2023-05-26T08:50:15.290Z,785.00
2023-05-26T08:51:15.290Z,783.00
2023-05-26T08:52:15.294Z,758.00
2023-05-26T08:53:16.926Z,791.00
2023-05-26T08:54:15.272Z,792.00
2023-05-26T08:55:15.316Z,801.00
2023-05-26T08:56:15.262Z,816.00
2023-05-26T08:57:15.262Z,819.00
2023-05-26T08:58:15.251Z,833.00
2023-05-26T08:59:15.242Z,889.00
2023-05-26T09:00:15.275Z,918.00
2023-05-26T09:01:15.244Z,948.00
2023-05-26T09:02:15.252Z,825.00
2023-05-26T09:03:15.295Z,879.00
2023-05-26T09:04:15.311Z,843.00
2023-05-26T09:05:15.187Z,964.00
2023-05-26T09:06:15.346Z,1062.00
2023-05-26T09:08:15.163Z,1041.00
2023-05-26T09:09:15.165Z,1068.00
2023-05-26T09:10:15.175Z,1109.00
2023-05-26T09:11:15.152Z,1116.00
2023-05-26T09:12:15.168Z,1117.00
2023-05-26T09:13:15.169Z,1124.00
2023-05-26T09:14:15.139Z,1170.00
2023-05-26T09:15:15.141Z,1152.00
2023-05-26T09:16:17.755Z,1195.00
2023-05-26T09:17:16.168Z,1195.00
2023-05-26T09:18:15.126Z,1148.00
2023-05-26T09:19:15.101Z,1084.00
2023-05-26T09:20:15.123Z,1104.00
2023-05-26T09:21:15.097Z,1198.00
2023-05-26T09:22:15.082Z,1113.00
2023-05-26T09:23:15.092Z,1019.00
2023-05-26T09:24:15.101Z,1021.00
2023-05-26T09:25:15.056Z,1011.00
2023-05-26T09:26:15.080Z,1109.00
2023-05-26T09:27:15.042Z,1109.00
2023-05-26T09:28:15.066Z,990.00
2023-05-26T09:29:15.042Z,997.00
2023-05-26T09:30:15.110Z,1011.00
2023-05-26T09:31:15.027Z,1063.00
2023-05-26T09:32:15.052Z,1183.00
2023-05-26T09:33:15.031Z,1201.00
2023-05-26T09:34:15.032Z,1150.00
2023-05-26T09:35:14.987Z,1099.00
2023-05-26T09:36:14.995Z,1073.00
2023-05-26T09:37:15.104Z,1149.00
2023-05-26T09:38:14.989Z,1106.00
2023-05-26T09:39:15.054Z,944.00
2023-05-26T09:40:15.023Z,784.00
2023-05-26T09:41:15.061Z,658.00
2023-05-26T09:42:15.089Z,751.00
2023-05-26T09:43:15.041Z,712.00
2023-05-26T09:44:15.071Z,714.00
2023-05-26T09:45:15.066Z,782.00
2023-05-26T09:46:15.097Z,827.00
2023-05-26T09:47:15.103Z,851.00
2023-05-26T09:48:15.115Z,864.00
2023-05-26T09:49:15.161Z,905.00
2023-05-26T09:50:15.148Z,894.00
2023-05-26T09:51:17.206Z,900.00
2023-05-26T09:52:15.154Z,942.00
2023-05-26T09:53:15.212Z,954.00
2023-05-26T09:54:15.120Z,962.00
2023-05-26T09:55:15.138Z,926.00
2023-05-26T09:56:19.705Z,885.00
2023-05-26T09:57:16.221Z,868.00
2023-05-26T09:58:15.094Z,864.00
2023-05-26T09:59:15.087Z,849.00
2023-05-26T10:00:15.127Z,889.00
2023-05-26T10:01:15.102Z,865.00
2023-05-26T10:02:15.145Z,875.00
2023-05-26T10:03:15.057Z,922.00
2023-05-26T10:04:15.049Z,923.00
2023-05-26T10:05:15.039Z,855.00
2023-05-26T10:06:15.048Z,894.00
2023-05-26T10:07:15.059Z,837.00
2023-05-26T10:08:15.093Z,858.00
2023-05-26T10:09:15.125Z,930.00
2023-05-26T10:10:15.188Z,959.00
2023-05-26T10:11:15.235Z,869.00
2023-05-26T10:12:15.661Z,867.00
2023-05-26T10:13:15.405Z,887.00
2023-05-26T10:14:15.430Z,869.00
2023-05-26T10:15:15.485Z,946.00
2023-05-26T10:16:15.537Z,1025.00
2023-05-26T10:17:15.618Z,1031.00
2023-05-26T10:18:15.681Z,989.00
2023-05-26T10:19:15.744Z,999.00
2023-05-26T10:20:15.828Z,940.00
2023-05-26T10:21:15.845Z,976.00
2023-05-26T10:22:15.884Z,1015.00
2023-05-26T10:23:15.938Z,1022.00
2023-05-26T10:24:16.008Z,1043.00
2023-05-26T10:25:16.047Z,1021.00
2023-05-26T10:26:16.090Z,975.00
2023-05-26T10:27:16.197Z,1122.00
2023-05-26T10:28:16.241Z,1220.00
2023-05-26T10:29:16.231Z,1254.00
2023-05-26T10:30:16.322Z,1390.00
2023-05-26T10:31:16.350Z,1341.00
2023-05-26T10:32:16.427Z,1309.00
2023-05-26T10:33:16.457Z,1085.00
2023-05-26T10:34:16.401Z,1170.00
2023-05-26T10:35:16.488Z,1251.00
2023-05-26T10:36:16.505Z,1171.00
2023-05-26T10:37:16.568Z,1157.00
2023-05-26T10:38:16.578Z,1105.00
2023-05-26T10:39:16.652Z,1003.00
2023-05-26T10:40:16.680Z,1050.00
2023-05-26T10:41:16.729Z,1082.00
2023-05-26T10:42:16.788Z,1067.00
2023-05-26T10:43:16.842Z,941.00
2023-05-26T10:44:16.896Z,1025.00
2023-05-26T10:45:16.914Z,1050.00
2023-05-26T10:46:17.062Z,1074.00
2023-05-26T10:47:17.015Z,1011.00
2023-05-26T10:48:17.074Z,417.00
2023-05-26T10:49:17.130Z,400.00
2023-05-26T10:50:17.233Z,400.00
2023-05-26T10:51:17.260Z,451.00
2023-05-26T10:52:17.300Z,511.00
2023-05-26T10:53:17.371Z,613.00
2023-05-26T10:54:17.434Z,555.00
2023-05-26T10:55:17.516Z,508.00
2023-05-26T10:56:17.535Z,536.00
2023-05-26T10:57:17.620Z,607.00
2023-05-26T10:58:17.646Z,699.00
2023-05-26T10:59:17.713Z,769.00
2023-05-26T11:00:17.869Z,938.00
2023-05-26T11:01:18.051Z,958.00
2023-05-26T11:02:17.880Z,973.00
2023-05-26T11:03:18.004Z,1007.00
2023-05-26T11:04:18.000Z,933.00
2023-05-26T11:05:18.006Z,961.00
2023-05-26T11:06:18.053Z,1100.00
2023-05-26T11:07:18.124Z,1162.00
2023-05-26T11:08:18.118Z,1113.00
2023-05-26T11:09:18.155Z,1170.00
2023-05-26T11:10:18.220Z,1253.00
2023-05-26T11:11:18.226Z,1301.00
2023-05-26T11:12:18.259Z,1373.00
2023-05-26T11:13:18.296Z,1177.00
2023-05-26T11:14:18.426Z,1124.00
2023-05-26T11:15:18.369Z,986.00
2023-05-26T11:16:18.445Z,1051.00
2023-05-26T11:17:18.525Z,1170.00
2023-05-26T11:18:18.511Z,1187.00
2023-05-26T11:19:18.502Z,1141.00
2023-05-26T11:20:18.697Z,1159.00
2023-05-26T11:21:18.607Z,1222.00
2023-05-26T11:22:18.636Z,1174.00
2023-05-26T11:23:18.655Z,1178.00
2023-05-26T11:24:18.695Z,1216.00
2023-05-26T11:25:18.755Z,1213.00
2023-05-26T11:26:18.795Z,1278.00
2023-05-26T11:27:18.861Z,1300.00
2023-05-26T11:28:18.883Z,1316.00
2023-05-26T11:29:18.900Z,1367.00
2023-05-26T11:30:18.971Z,1330.00
2023-05-26T11:31:19.047Z,1367.00
2023-05-26T11:32:19.047Z,1395.00
2023-05-26T11:33:19.115Z,1460.00
2023-05-26T11:34:19.156Z,1455.00
2023-05-26T11:35:19.212Z,1498.00
2023-05-26T11:36:19.286Z,1520.00
2023-05-26T11:37:19.291Z,1535.00
2023-05-26T11:38:19.358Z,1542.00
2023-05-26T11:39:19.394Z,1583.00
2023-05-26T11:40:19.460Z,1615.00
2023-05-26T11:41:19.511Z,1636.00
2023-05-26T11:42:19.702Z,1647.00
2023-05-26T11:43:19.608Z,1645.00
2023-05-26T11:44:19.677Z,1659.00
2023-05-26T11:45:19.740Z,1682.00
2023-05-26T11:46:19.811Z,1704.00
2023-05-26T11:47:19.841Z,1699.00
2023-05-26T11:48:19.911Z,1734.00
2023-05-26T11:49:19.960Z,1736.00
2023-05-26T11:50:20.038Z,1736.00
2023-05-26T11:51:20.069Z,1765.00
2023-05-26T11:52:20.133Z,1771.00
2023-05-26T11:53:20.236Z,1782.00
2023-05-26T11:54:20.235Z,1778.00
2023-05-26T11:55:20.396Z,1795.00
2023-05-26T11:56:20.352Z,1803.00
2023-05-26T11:57:20.406Z,1806.00
2023-05-26T11:58:20.464Z,1827.00
2023-05-26T11:59:20.526Z,1813.00
2023-05-26T12:00:20.666Z,1829.00
2023-05-26T12:01:20.640Z,1830.00
2023-05-26T12:02:21.271Z,1844.00
2023-05-26T12:03:20.762Z,1853.00
2023-05-26T12:04:20.820Z,1856.00
2023-05-26T12:05:20.878Z,1860.00
2023-05-26T12:07:21.014Z,1852.00
2023-05-26T12:08:21.050Z,1875.00
2023-05-26T12:09:21.101Z,1885.00
2023-05-26T12:10:21.174Z,1879.00
2023-05-26T12:11:21.254Z,1883.00